sensor_id;sensor_type;location;lat;lon;timestamp;pressure;altitude;pressure_sealevel;temperature;humidity
79131;BME280;72396;45.194;9.142;2023-10-19T00:01:08;100157.88;;;21.24;51.89
79131;BME280;72396;45.194;9.142;2023-10-19T00:03:35;100150.66;;;21.24;51.60
79131;BME280;72396;45.194;9.142;2023-10-19T00:06:00;100146.28;;;21.23;51.62
79131;BME280;72396;45.194;9.142;2023-10-19T00:08:26;100144.84;;;21.19;51.53
79131;BME280;72396;45.194;9.142;2023-10-19T00:11:02;100142.88;;;21.21;51.63
79131;BME280;72396;45.194;9.142;2023-10-19T00:13:27;100141.78;;;21.24;51.61
79131;BME280;72396;45.194;9.142;2023-10-19T00:15:55;100140.91;;;21.23;51.42
79131;BME280;72396;45.194;9.142;2023-10-19T00:18:22;100135.94;;;21.19;51.70
79131;BME280;72396;45.194;9.142;2023-10-19T00:20:52;100133.00;;;21.22;51.54
79131;BME280;72396;45.194;9.142;2023-10-19T00:23:21;100131.28;;;21.21;51.47
79131;BME280;72396;45.194;9.142;2023-10-19T00:25:54;100133.00;;;21.22;51.71
79131;BME280;72396;45.194;9.142;2023-10-19T00:28:20;100128.50;;;21.22;51.52
79131;BME280;72396;45.194;9.142;2023-10-19T00:30:47;100123.41;;;21.19;51.44
79131;BME280;72396;45.194;9.142;2023-10-19T00:33:15;100118.03;;;21.19;51.25
79131;BME280;72396;45.194;9.142;2023-10-19T00:35:45;100111.69;;;21.20;51.29
79131;BME280;72396;45.194;9.142;2023-10-19T00:38:47;100107.31;;;21.19;51.45
79131;BME280;72396;45.194;9.142;2023-10-19T00:41:12;100096.59;;;21.19;51.31
79131;BME280;72396;45.194;9.142;2023-10-19T00:43:41;100084.28;;;21.17;51.23
79131;BME280;72396;45.194;9.142;2023-10-19T00:46:14;100070.59;;;21.10;51.22
79131;BME280;72396;45.194;9.142;2023-10-19T00:48:52;100057.19;;;21.10;51.17
79131;BME280;72396;45.194;9.142;2023-10-19T00:51:24;100063.72;;;21.17;51.13
79131;BME280;72396;45.194;9.142;2023-10-19T00:54:03;100056.50;;;21.18;51.18
79131;BME280;72396;45.194;9.142;2023-10-19T00:56:36;100051.28;;;21.16;51.22
79131;BME280;72396;45.194;9.142;2023-10-19T00:59:02;100048.63;;;21.16;51.05
79131;BME280;72396;45.194;9.142;2023-10-19T01:01:41;100048.63;;;21.16;51.05
79131;BME280;72396;45.194;9.142;2023-10-19T01:04:10;100037.59;;;21.09;51.02
79131;BME280;72396;45.194;9.142;2023-10-19T01:06:42;100044.94;;;21.17;51.02
79131;BME280;72396;45.194;9.142;2023-10-19T01:09:25;100046.06;;;21.14;51.15
79131;BME280;72396;45.194;9.142;2023-10-19T01:11:52;100042.50;;;21.14;50.84
79131;BME280;72396;45.194;9.142;2023-10-19T01:14:22;100040.56;;;21.16;51.25
79131;BME280;72396;45.194;9.142;2023-10-19T01:16:48;100038.00;;;21.14;50.93
79131;BME280;72396;45.194;9.142;2023-10-19T01:19:22;100046.34;;;21.11;51.22
79131;BME280;72396;45.194;9.142;2023-10-19T01:21:48;100046.91;;;21.15;51.17
79131;BME280;72396;45.194;9.142;2023-10-19T01:24:19;100042.50;;;21.14;51.15
79131;BME280;72396;45.194;9.142;2023-10-19T01:27:04;100042.66;;;21.12;51.02
79131;BME280;72396;45.194;9.142;2023-10-19T01:29:33;100035.59;;;21.11;51.18
79131;BME280;72396;45.194;9.142;2023-10-19T01:31:59;100035.72;;;21.10;51.15
79131;BME280;72396;45.194;9.142;2023-10-19T01:34:35;100029.25;;;21.12;51.06
79131;BME280;72396;45.194;9.142;2023-10-19T01:37:01;100016.25;;;21.08;50.93
79131;BME280;72396;45.194;9.142;2023-10-19T01:39:33;100011.75;;;21.08;50.91
79131;BME280;72396;45.194;9.142;2023-10-19T01:42:01;100015.00;;;21.12;51.05
79131;BME280;72396;45.194;9.142;2023-10-19T01:44:31;100006.13;;;21.11;51.07
79131;BME280;72396;45.194;9.142;2023-10-19T01:46:56;100000.88;;;21.10;50.89
79131;BME280;72396;45.194;9.142;2023-10-19T01:49:21;100000.88;;;21.10;50.77
79131;BME280;72396;45.194;9.142;2023-10-19T01:51:54;99992.00;;;21.09;50.93
79131;BME280;72396;45.194;9.142;2023-10-19T01:54:23;99991.84;;;21.11;50.91
79131;BME280;72396;45.194;9.142;2023-10-19T01:56:54;99976.22;;;21.06;50.83
79131;BME280;72396;45.194;9.142;2023-10-19T01:59:23;99981.13;;;21.11;50.73
79131;BME280;72396;45.194;9.142;2023-10-19T02:01:52;99976.75;;;21.10;50.62
79131;BME280;72396;45.194;9.142;2023-10-19T02:04:17;99972.38;;;21.09;50.68
79131;BME280;72396;45.194;9.142;2023-10-19T02:06:43;99973.38;;;21.08;50.75
79131;BME280;72396;45.194;9.142;2023-10-19T02:09:12;99970.69;;;21.08;50.52
79131;BME280;72396;45.194;9.142;2023-10-19T02:11:41;99985.09;;;21.07;50.88
79131;BME280;72396;45.194;9.142;2023-10-19T02:14:08;99981.41;;;21.08;50.72
79131;BME280;72396;45.194;9.142;2023-10-19T02:16:44;99974.63;;;21.04;50.68
79131;BME280;72396;45.194;9.142;2023-10-19T02:19:12;99970.84;;;21.06;50.65
79131;BME280;72396;45.194;9.142;2023-10-19T02:21:37;99963.63;;;21.07;50.69
79131;BME280;72396;45.194;9.142;2023-10-19T02:24:09;99960.97;;;21.07;50.72
79131;BME280;72396;45.194;9.142;2023-10-19T02:26:35;99955.16;;;21.01;50.68
79131;BME280;72396;45.194;9.142;2023-10-19T02:29:03;99961.09;;;21.05;50.61
79131;BME280;72396;45.194;9.142;2023-10-19T02:31:33;99961.94;;;21.06;50.62
79131;BME280;72396;45.194;9.142;2023-10-19T02:33:59;99961.09;;;21.05;50.58
79131;BME280;72396;45.194;9.142;2023-10-19T02:36:28;99952.22;;;21.05;50.58
79131;BME280;72396;45.194;9.142;2023-10-19T02:38:58;99939.78;;;21.04;50.64
79131;BME280;72396;45.194;9.142;2023-10-19T02:41:25;99943.31;;;21.04;50.58
79131;BME280;72396;45.194;9.142;2023-10-19T02:43:52;99930.91;;;21.03;50.66
79131;BME280;72396;45.194;9.142;2023-10-19T02:46:30;99920.03;;;21.05;50.60
79131;BME280;72396;45.194;9.142;2023-10-19T02:49:03;99915.69;;;21.04;50.74
79131;BME280;72396;45.194;9.142;2023-10-19T02:51:30;99914.69;;;21.05;50.32
79131;BME280;72396;45.194;9.142;2023-10-19T02:53:56;99919.63;;;20.99;50.52
79131;BME280;72396;45.194;9.142;2023-10-19T02:56:24;99917.50;;;21.03;50.58
79131;BME280;72396;45.194;9.142;2023-10-19T02:58:50;99906.06;;;21.01;50.55
79131;BME280;72396;45.194;9.142;2023-10-19T03:01:20;99900.59;;;21.03;50.61
79131;BME280;72396;45.194;9.142;2023-10-19T03:03:51;99896.22;;;21.01;50.56
79131;BME280;72396;45.194;9.142;2023-10-19T03:06:22;99898.88;;;21.01;50.47
79131;BME280;72396;45.194;9.142;2023-10-19T03:08:48;99895.34;;;21.01;50.57
79131;BME280;72396;45.194;9.142;2023-10-19T03:11:17;99886.31;;;21.02;50.59
79131;BME280;72396;45.194;9.142;2023-10-19T03:13:42;99884.50;;;21.03;50.44
79131;BME280;72396;45.194;9.142;2023-10-19T03:16:09;99895.22;;;21.03;50.52
79131;BME280;72396;45.194;9.142;2023-10-19T03:18:35;99896.34;;;21.00;50.62
79131;BME280;72396;45.194;9.142;2023-10-19T03:21:04;99896.34;;;21.00;50.41
79131;BME280;72396;45.194;9.142;2023-10-19T03:23:29;99892.09;;;20.97;50.39
79131;BME280;72396;45.194;9.142;2023-10-19T03:25:57;99897.31;;;20.99;50.54
79131;BME280;72396;45.194;9.142;2023-10-19T03:28:41;99891.97;;;20.99;50.38
79131;BME280;72396;45.194;9.142;2023-10-19T03:31:08;99892.81;;;20.99;50.59
79131;BME280;72396;45.194;9.142;2023-10-19T03:33:33;99880.25;;;21.00;50.56
79131;BME280;72396;45.194;9.142;2023-10-19T03:36:02;99884.91;;;20.98;50.53
79131;BME280;72396;45.194;9.142;2023-10-19T03:38:30;99865.56;;;20.94;50.40
79131;BME280;72396;45.194;9.142;2023-10-19T03:41:00;99866.16;;;20.98;50.52
79131;BME280;72396;45.194;9.142;2023-10-19T03:43:31;99861.66;;;20.98;50.41
79131;BME280;72396;45.194;9.142;2023-10-19T03:45:57;99858.22;;;20.96;50.41
79131;BME280;72396;45.194;9.142;2023-10-19T03:48:24;99854.56;;;20.97;50.29
79131;BME280;72396;45.194;9.142;2023-10-19T03:50:52;99839.75;;;20.93;50.54
79131;BME280;72396;45.194;9.142;2023-10-19T03:53:20;99844.84;;;20.96;50.41
79131;BME280;72396;45.194;9.142;2023-10-19T03:55:47;99851.06;;;20.97;50.42
79131;BME280;72396;45.194;9.142;2023-10-19T03:58:13;99842.16;;;20.96;50.38
79131;BME280;72396;45.194;9.142;2023-10-19T04:00:38;99835.97;;;20.96;50.30
79131;BME280;72396;45.194;9.142;2023-10-19T04:03:03;99822.00;;;20.92;50.44
79131;BME280;72396;45.194;9.142;2023-10-19T04:05:30;99822.56;;;20.96;50.49
79131;BME280;72396;45.194;9.142;2023-10-19T04:07:57;99824.38;;;20.95;50.45
79131;BME280;72396;45.194;9.142;2023-10-19T04:10:26;99821.69;;;20.95;50.42
79131;BME280;72396;45.194;9.142;2023-10-19T04:13:00;99818.31;;;20.93;50.22
79131;BME280;72396;45.194;9.142;2023-10-19T04:15:26;99816.50;;;20.94;49.97
79131;BME280;72396;45.194;9.142;2023-10-19T04:17:52;99819.19;;;20.94;49.87
79131;BME280;72396;45.194;9.142;2023-10-19T04:20:24;99817.78;;;20.90;50.14
79131;BME280;72396;45.194;9.142;2023-10-19T04:23:07;99807.88;;;20.90;49.97
79131;BME280;72396;45.194;9.142;2023-10-19T04:25:36;99806.78;;;20.93;49.93
79131;BME280;72396;45.194;9.142;2023-10-19T04:28:02;99796.06;;;20.93;50.03
79131;BME280;72396;45.194;9.142;2023-10-19T04:30:28;99789.72;;;20.94;50.10
79131;BME280;72396;45.194;9.142;2023-10-19T04:32:54;99801.81;;;20.98;50.54
79131;BME280;72396;45.194;9.142;2023-10-19T04:35:23;99810.16;;;21.05;50.62
79131;BME280;72396;45.194;9.142;2023-10-19T04:37:52;99827.94;;;21.06;50.40
79131;BME280;72396;45.194;9.142;2023-10-19T04:40:19;99815.34;;;20.96;49.87
79131;BME280;72396;45.194;9.142;2023-10-19T04:42:45;99804.63;;;20.96;50.68
79131;BME280;72396;45.194;9.142;2023-10-19T04:45:11;99810.00;;;20.96;50.89
79131;BME280;72396;45.194;9.142;2023-10-19T04:47:38;99821.69;;;20.95;49.85
79131;BME280;72396;45.194;9.142;2023-10-19T04:50:05;99818.56;;;20.70;50.64
79131;BME280;72396;45.194;9.142;2023-10-19T04:52:31;99819.44;;;20.81;50.84
79131;BME280;72396;45.194;9.142;2023-10-19T04:54:57;99812.84;;;20.85;50.84
79131;BME280;72396;45.194;9.142;2023-10-19T04:57:22;99807.88;;;20.90;50.84
79131;BME280;72396;45.194;9.142;2023-10-19T04:59:48;99812.25;;;20.91;50.81
79131;BME280;72396;45.194;9.142;2023-10-19T05:02:13;99798.28;;;20.87;50.65
79131;BME280;72396;45.194;9.142;2023-10-19T05:04:39;99796.88;;;20.93;50.51
79131;BME280;72396;45.194;9.142;2023-10-19T05:07:06;99786.16;;;20.93;50.62
79131;BME280;72396;45.194;9.142;2023-10-19T05:09:32;99785.34;;;20.93;50.42
79131;BME280;72396;45.194;9.142;2023-10-19T05:11:57;99779.69;;;20.86;50.42
79131;BME280;72396;45.194;9.142;2023-10-19T05:14:23;99764.97;;;20.41;49.66
79131;BME280;72396;45.194;9.142;2023-10-19T05:16:49;99770.09;;;19.51;51.86
79131;BME280;72396;45.194;9.142;2023-10-19T05:19:15;99766.41;;;19.73;52.32
79131;BME280;72396;45.194;9.142;2023-10-19T05:21:40;99757.97;;;19.99;52.17
79131;BME280;72396;45.194;9.142;2023-10-19T05:24:06;99745.75;;;20.26;52.05
79131;BME280;72396;45.194;9.142;2023-10-19T05:26:35;99743.81;;;20.48;51.69
79131;BME280;72396;45.194;9.142;2023-10-19T05:29:00;99755.25;;;20.59;51.32
79131;BME280;72396;45.194;9.142;2023-10-19T05:31:25;99746.94;;;20.63;50.92
79131;BME280;72396;45.194;9.142;2023-10-19T05:33:53;99747.22;;;20.69;51.83
79131;BME280;72396;45.194;9.142;2023-10-19T05:36:18;99748.34;;;20.77;50.94
79131;BME280;72396;45.194;9.142;2023-10-19T05:38:44;99750.91;;;20.78;51.69
79131;BME280;72396;45.194;9.142;2023-10-19T05:41:09;99756.56;;;20.85;51.83
79131;BME280;72396;45.194;9.142;2023-10-19T05:43:36;99759.25;;;20.85;51.74
79131;BME280;72396;45.194;9.142;2023-10-19T05:46:02;99772.66;;;20.85;51.66
79131;BME280;72396;45.194;9.142;2023-10-19T05:48:27;99771.78;;;20.84;51.53
79131;BME280;72396;45.194;9.142;2023-10-19T05:50:52;99765.84;;;20.81;51.43
79131;BME280;72396;45.194;9.142;2023-10-19T05:53:18;99754.31;;;20.80;51.39
79131;BME280;72396;45.194;9.142;2023-10-19T05:55:46;99755.41;;;20.87;51.34
79131;BME280;72396;45.194;9.142;2023-10-19T05:58:12;99753.19;;;20.83;51.01
79131;BME280;72396;45.194;9.142;2023-10-19T06:00:38;99739.06;;;20.81;50.85
79131;BME280;72396;45.194;9.142;2023-10-19T06:03:04;99729.59;;;20.77;50.67
79131;BME280;72396;45.194;9.142;2023-10-19T06:05:30;99729.28;;;20.80;50.76
79131;BME280;72396;45.194;9.142;2023-10-19T06:07:56;99740.91;;;20.80;50.84
79131;BME280;72396;45.194;9.142;2023-10-19T06:10:22;99753.41;;;20.80;50.90
79131;BME280;72396;45.194;9.142;2023-10-19T06:12:49;99749.03;;;20.79;50.72
79131;BME280;72396;45.194;9.142;2023-10-19T06:15:16;99749.91;;;20.79;50.59
79131;BME280;72396;45.194;9.142;2023-10-19T06:17:43;99741.00;;;20.79;50.29
79131;BME280;72396;45.194;9.142;2023-10-19T06:20:10;99733.69;;;20.81;50.17
79131;BME280;72396;45.194;9.142;2023-10-19T06:22:54;99738.09;;;20.82;50.28
79131;BME280;72396;45.194;9.142;2023-10-19T06:25:22;99737.66;;;20.86;50.29
79131;BME280;72396;45.194;9.142;2023-10-19T06:27:50;99734.28;;;20.84;50.32
79131;BME280;72396;45.194;9.142;2023-10-19T06:30:17;99738.50;;;20.87;50.60
79131;BME280;72396;45.194;9.142;2023-10-19T06:32:51;99740.19;;;20.88;50.55
79131;BME280;72396;45.194;9.142;2023-10-19T06:35:17;99735.13;;;20.85;50.67
79131;BME280;72396;45.194;9.142;2023-10-19T06:37:44;99745.84;;;20.85;50.54
79131;BME280;72396;45.194;9.142;2023-10-19T06:40:09;99744.69;;;20.87;50.64
79131;BME280;72396;45.194;9.142;2023-10-19T06:42:40;99750.91;;;20.88;50.43
79131;BME280;72396;45.194;9.142;2023-10-19T06:45:06;99749.53;;;20.84;50.71
79131;BME280;72396;45.194;9.142;2023-10-19T06:47:32;99748.91;;;20.70;50.75
79131;BME280;72396;45.194;9.142;2023-10-19T06:50:03;99750.47;;;20.73;50.94
79131;BME280;72396;45.194;9.142;2023-10-19T06:52:30;99755.25;;;20.79;50.83
79131;BME280;72396;45.194;9.142;2023-10-19T06:54:57;99759.25;;;20.85;50.54
79131;BME280;72396;45.194;9.142;2023-10-19T06:57:23;99756.41;;;20.86;50.76
79131;BME280;72396;45.194;9.142;2023-10-19T06:59:48;99759.78;;;20.89;50.49
79131;BME280;72396;45.194;9.142;2023-10-19T07:02:13;99751.03;;;20.86;50.84
79131;BME280;72396;45.194;9.142;2023-10-19T07:04:39;99749.22;;;20.87;50.80
79131;BME280;72396;45.194;9.142;2023-10-19T07:07:04;99743.16;;;20.85;50.59
79131;BME280;72396;45.194;9.142;2023-10-19T07:09:29;99750.06;;;20.87;50.66
79131;BME280;72396;45.194;9.142;2023-10-19T07:11:55;99759.75;;;20.79;50.49
79131;BME280;72396;45.194;9.142;2023-10-19T07:14:22;99762.03;;;20.73;50.78
79131;BME280;72396;45.194;9.142;2023-10-19T07:16:49;99755.69;;;20.75;51.50
79131;BME280;72396;45.194;9.142;2023-10-19T07:19:15;99761.03;;;20.75;51.01
79131;BME280;72396;45.194;9.142;2023-10-19T07:21:40;99760.34;;;20.72;51.20
79131;BME280;72396;45.194;9.142;2023-10-19T07:24:08;99753.16;;;20.73;51.08
79131;BME280;72396;45.194;9.142;2023-10-19T07:26:36;99753.97;;;20.73;51.34
79131;BME280;72396;45.194;9.142;2023-10-19T07:29:09;99762.03;;;20.73;51.41
79131;BME280;72396;45.194;9.142;2023-10-19T07:31:35;99755.09;;;20.71;51.31
79131;BME280;72396;45.194;9.142;2023-10-19T07:34:01;99748.75;;;20.72;51.38
79131;BME280;72396;45.194;9.142;2023-10-19T07:36:26;99744.53;;;20.69;51.39
79131;BME280;72396;45.194;9.142;2023-10-19T07:38:51;99741.00;;;20.69;51.48
79131;BME280;72396;45.194;9.142;2023-10-19T07:41:17;99733.38;;;20.64;51.40
79131;BME280;72396;45.194;9.142;2023-10-19T07:43:42;99737.50;;;20.68;51.41
79131;BME280;72396;45.194;9.142;2023-10-19T07:46:12;99731.44;;;20.66;51.26
79131;BME280;72396;45.194;9.142;2023-10-19T07:48:37;99731.44;;;20.66;51.43
79131;BME280;72396;45.194;9.142;2023-10-19T07:51:03;99736.81;;;20.66;51.37
79131;BME280;72396;45.194;9.142;2023-10-19T07:53:28;99695.19;;;20.52;51.32
79131;BME280;72396;45.194;9.142;2023-10-19T07:55:55;99713.69;;;20.65;51.08
79131;BME280;72396;45.194;9.142;2023-10-19T07:58:22;99732.44;;;20.65;51.51
79131;BME280;72396;45.194;9.142;2023-10-19T08:00:48;99719.03;;;20.65;51.30
79131;BME280;72396;45.194;9.142;2023-10-19T08:03:14;99717.31;;;20.64;51.26
79131;BME280;72396;45.194;9.142;2023-10-19T08:05:41;99715.50;;;20.65;51.32
79131;BME280;72396;45.194;9.142;2023-10-19T08:08:07;99708.31;;;20.65;51.15
79131;BME280;72396;45.194;9.142;2023-10-19T08:10:34;99700.28;;;20.65;51.35
79131;BME280;72396;45.194;9.142;2023-10-19T08:13:02;99703.91;;;20.64;51.18
79131;BME280;72396;45.194;9.142;2023-10-19T08:15:27;99704.09;;;20.63;51.23
79131;BME280;72396;45.194;9.142;2023-10-19T08:17:55;99715.50;;;20.65;51.01
79131;BME280;72396;45.194;9.142;2023-10-19T08:20:21;99714.50;;;20.66;51.14
79131;BME280;72396;45.194;9.142;2023-10-19T08:22:53;99707.47;;;20.65;51.21
79131;BME280;72396;45.194;9.142;2023-10-19T08:25:18;99666.88;;;20.50;51.23
79131;BME280;72396;45.194;9.142;2023-10-19T08:27:44;99679.28;;;20.61;51.08
79131;BME280;72396;45.194;9.142;2023-10-19T08:30:13;99680.09;;;20.61;51.19
79131;BME280;72396;45.194;9.142;2023-10-19T08:32:40;99657.28;;;20.57;51.19
79131;BME280;72396;45.194;9.142;2023-10-19T08:35:07;99673.75;;;20.62;51.03
79131;BME280;72396;45.194;9.142;2023-10-19T08:37:32;99682.38;;;20.56;51.30
79131;BME280;72396;45.194;9.142;2023-10-19T08:39:59;99656.44;;;20.47;51.24
79131;BME280;72396;45.194;9.142;2023-10-19T08:42:25;99665.59;;;20.54;51.27
79131;BME280;72396;45.194;9.142;2023-10-19T08:44:50;99663.63;;;20.56;51.04
79131;BME280;72396;45.194;9.142;2023-10-19T08:47:16;99668.41;;;20.62;50.94
79131;BME280;72396;45.194;9.142;2023-10-19T08:49:42;99671.09;;;20.62;51.01
79131;BME280;72396;45.194;9.142;2023-10-19T08:52:08;99674.47;;;20.64;50.90
79131;BME280;72396;45.194;9.142;2023-10-19T08:54:34;99657.56;;;20.64;50.91
79131;BME280;72396;45.194;9.142;2023-10-19T08:57:00;99642.47;;;20.63;50.82
79131;BME280;72396;45.194;9.142;2023-10-19T08:59:25;99667.28;;;20.65;50.75
79131;BME280;72396;45.194;9.142;2023-10-19T09:02:02;99666.59;;;20.63;50.79
79131;BME280;72396;45.194;9.142;2023-10-19T09:04:28;99687.84;;;20.64;51.04
79131;BME280;72396;45.194;9.142;2023-10-19T09:06:54;99699.72;;;20.62;51.03
79131;BME280;72396;45.194;9.142;2023-10-19T09:09:20;99694.50;;;20.60;50.86
79131;BME280;72396;45.194;9.142;2023-10-19T09:11:47;99679.97;;;20.63;50.88
79131;BME280;72396;45.194;9.142;2023-10-19T09:14:14;99661.94;;;20.55;50.92
79131;BME280;72396;45.194;9.142;2023-10-19T09:16:56;99668.56;;;20.61;50.76
79131;BME280;72396;45.194;9.142;2023-10-19T09:22:01;99657.00;;;20.60;50.84
79131;BME280;72396;45.194;9.142;2023-10-19T09:24:35;99662.34;;;20.60;51.07
79131;BME280;72396;45.194;9.142;2023-10-19T09:27:02;99666.88;;;20.59;51.06
79131;BME280;72396;45.194;9.142;2023-10-19T09:29:28;99660.53;;;20.61;50.93
79131;BME280;72396;45.194;9.142;2023-10-19T09:31:55;99666.31;;;20.56;51.28
79131;BME280;72396;45.194;9.142;2023-10-19T09:34:24;99672.53;;;20.56;51.05
79131;BME280;72396;45.194;9.142;2023-10-19T09:36:57;99657.84;;;20.61;51.10
79131;BME280;72396;45.194;9.142;2023-10-19T09:39:22;99659.66;;;20.60;50.96
79131;BME280;72396;45.194;9.142;2023-10-19T09:41:49;99658.69;;;20.61;51.01
79131;BME280;72396;45.194;9.142;2023-10-19T09:44:21;99655.72;;;20.64;50.99
79131;BME280;72396;45.194;9.142;2023-10-19T09:46:53;99636.56;;;20.59;50.93
79131;BME280;72396;45.194;9.142;2023-10-19T09:49:22;99644.59;;;20.59;51.09
79131;BME280;72396;45.194;9.142;2023-10-19T09:51:50;99643.47;;;20.62;50.98
79131;BME280;72396;45.194;9.142;2023-10-19T09:54:27;99645.28;;;20.61;50.86
79131;BME280;72396;45.194;9.142;2023-10-19T09:57:03;99637.53;;;20.58;50.94
79131;BME280;72396;45.194;9.142;2023-10-19T09:59:38;99627.13;;;20.55;51.07
79131;BME280;72396;45.194;9.142;2023-10-19T10:02:16;99620.66;;;20.57;51.18
79131;BME280;72396;45.194;9.142;2023-10-19T10:04:44;99610.91;;;20.56;51.10
79131;BME280;72396;45.194;9.142;2023-10-19T10:07:11;99610.91;;;20.56;51.21
79131;BME280;72396;45.194;9.142;2023-10-19T10:09:38;99583.97;;;20.58;51.32
79131;BME280;72396;45.194;9.142;2023-10-19T10:12:25;99581.31;;;20.58;51.22
79131;BME280;72396;45.194;9.142;2023-10-19T10:17:24;99607.25;;;20.57;51.36
79131;BME280;72396;45.194;9.142;2023-10-19T10:19:53;99617.09;;;20.57;51.26
79131;BME280;72396;45.194;9.142;2023-10-19T10:22:21;99623.75;;;20.23;52.28
79131;BME280;72396;45.194;9.142;2023-10-19T10:24:47;99622.63;;;20.26;52.18
79131;BME280;72396;45.194;9.142;2023-10-19T10:27:16;99624.16;;;20.38;51.96
79131;BME280;72396;45.194;9.142;2023-10-19T10:29:58;99627.56;;;20.40;51.96
79131;BME280;72396;45.194;9.142;2023-10-19T10:38:09;99591.31;;;20.56;52.26
79131;BME280;72396;45.194;9.142;2023-10-19T10:43:10;99582.28;;;20.57;51.65
79131;BME280;72396;45.194;9.142;2023-10-19T10:45:36;99578.22;;;20.53;51.65
79131;BME280;72396;45.194;9.142;2023-10-19T10:48:02;99591.03;;;20.59;51.75
79131;BME280;72396;45.194;9.142;2023-10-19T10:50:27;99583.97;;;20.58;51.48
79131;BME280;72396;45.194;9.142;2023-10-19T10:52:53;99592.72;;;20.60;51.67
79131;BME280;72396;45.194;9.142;2023-10-19T10:55:23;99601.63;;;20.11;52.46
79131;BME280;72396;45.194;9.142;2023-10-19T10:57:50;99600.50;;;20.24;52.35
79131;BME280;72396;45.194;9.142;2023-10-19T11:00:16;99598.69;;;20.34;52.20
79131;BME280;72396;45.194;9.142;2023-10-19T11:02:43;99594.44;;;20.41;52.01
79131;BME280;72396;45.194;9.142;2023-10-19T11:05:16;99589.91;;;20.52;52.36
79131;BME280;72396;45.194;9.142;2023-10-19T11:10:35;99582.84;;;20.61;52.65
79131;BME280;72396;45.194;9.142;2023-10-19T11:13:03;99583.00;;;20.59;53.03
79131;BME280;72396;45.194;9.142;2023-10-19T11:15:28;99578.91;;;20.65;53.39
79131;BME280;72396;45.194;9.142;2023-10-19T11:17:54;99560.00;;;20.66;53.79
79131;BME280;72396;45.194;9.142;2023-10-19T11:20:23;99557.03;;;20.69;54.21
79131;BME280;72396;45.194;9.142;2023-10-19T11:22:53;99548.84;;;20.71;53.94
79131;BME280;72396;45.194;9.142;2023-10-19T11:25:25;99542.78;;;20.69;54.33
79131;BME280;72396;45.194;9.142;2023-10-19T11:27:55;99534.41;;;20.44;54.36
79131;BME280;72396;45.194;9.142;2023-10-19T11:30:28;99535.66;;;20.50;55.14
79131;BME280;72396;45.194;9.142;2023-10-19T11:32:55;99536.03;;;20.65;55.01
79131;BME280;72396;45.194;9.142;2023-10-19T11:35:28;99518.25;;;20.73;54.92
79131;BME280;72396;45.194;9.142;2023-10-19T11:37:57;99488.09;;;20.71;55.05
79131;BME280;72396;45.194;9.142;2023-10-19T11:40:25;99488.47;;;20.77;54.78
79131;BME280;72396;45.194;9.142;2023-10-19T11:42:51;99505.00;;;20.82;55.02
79131;BME280;72396;45.194;9.142;2023-10-19T11:45:18;99519.94;;;20.84;55.13
79131;BME280;72396;45.194;9.142;2023-10-19T11:47:44;99500.59;;;20.81;55.05
79131;BME280;72396;45.194;9.142;2023-10-19T11:50:10;99511.88;;;20.84;54.87
79131;BME280;72396;45.194;9.142;2023-10-19T11:52:39;99521.59;;;20.85;55.31
79131;BME280;72396;45.194;9.142;2023-10-19T11:55:05;99510.91;;;20.85;55.33
79131;BME280;72396;45.194;9.142;2023-10-19T11:57:31;99508.22;;;20.85;55.38
79131;BME280;72396;45.194;9.142;2023-10-19T11:59:56;99505.00;;;20.82;55.49
79131;BME280;72396;45.194;9.142;2023-10-19T12:02:24;99502.16;;;20.83;55.51
79131;BME280;72396;45.194;9.142;2023-10-19T12:04:50;99511.97;;;20.55;53.40
79131;BME280;72396;45.194;9.142;2023-10-19T12:07:15;99512.19;;;20.14;55.84
79131;BME280;72396;45.194;9.142;2023-10-19T12:09:40;99508.34;;;20.36;55.98
79131;BME280;72396;45.194;9.142;2023-10-19T12:12:07;99498.88;;;20.52;55.94
79131;BME280;72396;45.194;9.142;2023-10-19T12:14:32;99502.25;;;20.54;55.47
79131;BME280;72396;45.194;9.142;2023-10-19T12:17:01;99513.38;;;20.49;55.40
79131;BME280;72396;45.194;9.142;2023-10-19T12:19:30;99506.00;;;20.61;54.70
79131;BME280;72396;45.194;9.142;2023-10-19T12:21:56;99485.16;;;20.65;54.98
79131;BME280;72396;45.194;9.142;2023-10-19T12:24:21;99483.72;;;20.70;55.12
79131;BME280;72396;45.194;9.142;2023-10-19T12:26:47;99484.53;;;20.71;54.82
79131;BME280;72396;45.194;9.142;2023-10-19T12:29:12;99483.81;;;20.79;54.16
79131;BME280;72396;45.194;9.142;2023-10-19T12:31:40;99475.09;;;20.77;54.82
79131;BME280;72396;45.194;9.142;2023-10-19T12:34:06;99471.13;;;20.81;54.55
79131;BME280;72396;45.194;9.142;2023-10-19T12:36:34;99457.94;;;20.69;54.51
79131;BME280;72396;45.194;9.142;2023-10-19T12:39:00;99483.56;;;20.82;54.74
79131;BME280;72396;45.194;9.142;2023-10-19T12:41:26;99490.16;;;20.78;54.85
79131;BME280;72396;45.194;9.142;2023-10-19T12:43:52;99502.31;;;20.82;54.90
79131;BME280;72396;45.194;9.142;2023-10-19T12:46:22;99494.97;;;20.84;54.80
79131;BME280;72396;45.194;9.142;2023-10-19T12:48:53;99491.44;;;20.83;54.92
79131;BME280;72396;45.194;9.142;2023-10-19T12:51:21;99491.31;;;20.85;54.60
79131;BME280;72396;45.194;9.142;2023-10-19T12:53:53;99480.13;;;20.80;54.71
79131;BME280;72396;45.194;9.142;2023-10-19T12:56:19;99484.97;;;20.86;53.89
79131;BME280;72396;45.194;9.142;2023-10-19T12:58:45;99469.72;;;20.86;53.09
79131;BME280;72396;45.194;9.142;2023-10-19T13:01:13;99460.16;;;20.84;53.77
79131;BME280;72396;45.194;9.142;2023-10-19T13:03:48;99468.72;;;20.78;53.74
79131;BME280;72396;45.194;9.142;2023-10-19T13:06:17;99449.19;;;20.67;53.58
79131;BME280;72396;45.194;9.142;2023-10-19T13:08:42;99460.28;;;20.82;54.34
79131;BME280;72396;45.194;9.142;2023-10-19T13:11:09;99445.06;;;20.83;54.12
79131;BME280;72396;45.194;9.142;2023-10-19T13:13:40;99422.19;;;20.79;54.04
79131;BME280;72396;45.194;9.142;2023-10-19T13:16:06;99426.19;;;20.75;54.47
79131;BME280;72396;45.194;9.142;2023-10-19T13:18:34;99427.72;;;20.77;54.21
79131;BME280;72396;45.194;9.142;2023-10-19T13:21:00;99420.00;;;20.74;54.22